Sl Cook — VMQ9341 — position and weather

sailwx.info

Track history (hours):
 
Tides and Currents Weather Stations Pressure Air Temp Water Temp Dewpoint Dewpoint Depression Visibility Wind Speed Wind Dir Waves Ship Positions

Sl Cook

Last reported at 2018-Jun-22 06:53 UTC. Time now 2018-Jun-24 09:15 UTC.
Position S 32°46' E 152°35'.

Length 34 m; draft 4.4 m.

Type: Tug. MMSI: 503546000.

Date/timePositionNaut miles runAvg speedWind from/ knotsBaromVisibWave heightAir tempDewpointWater temp
2018-Jun-22 06:53S 32°46' E 152°35'4 8.4
2018-Jun-22 06:27S 32°43' E 152°36'4 8.7
2018-Jun-22 06:00S 32°39' E 152°38'339 6.6
2018-Jun-20 02:33S 27°02' E 153°15'1 6.6
2018-Jun-20 02:24S 27°03' E 153°16'13 6.1
2018-Jun-20 00:12S 27°16' E 153°16'2 8.4
2018-Jun-19 23:57S 27°17' E 153°14'  
2018-Jun-16 01:34S 27°16' E 153°19'2 5.6
2018-Jun-16 01:10S 27°17' E 153°18'211.7
2018-Jun-16 01:00S 27°18' E 153°16'  
Track history (hours):
 
Tides and Currents Weather Stations Pressure Air Temp Water Temp Dewpoint Dewpoint Depression Visibility Wind Speed Wind Dir Waves Ship Positions

Sl Cook

Last reported at 2018-Jun-22 06:53 UTC. Time now 2018-Jun-24 09:15 UTC.
Position S 32°46' E 152°35'.

Length 34 m; draft 4.4 m.

Type: Tug. MMSI: 503546000.

Date/timePositionNaut miles runAvg speedWind from/ knotsBaromVisibWave heightAir tempDewpointWater temp
2018-Jun-22 06:53S 32°46' E 152°35'4 8.4
2018-Jun-22 06:27S 32°43' E 152°36'4 8.7
2018-Jun-22 06:00S 32°39' E 152°38'339 6.6
2018-Jun-20 02:33S 27°02' E 153°15'1 6.6
2018-Jun-20 02:24S 27°03' E 153°16'13 6.1
2018-Jun-20 00:12S 27°16' E 153°16'2 8.4
2018-Jun-19 23:57S 27°17' E 153°14'  
2018-Jun-16 01:34S 27°16' E 153°19'2 5.6
2018-Jun-16 01:10S 27°17' E 153°18'211.7
2018-Jun-16 01:00S 27°18' E 153°16'  

Dump ship's entire track history